createdAt,value
2018-01-01T00:00:02.718Z,9.68
2018-01-01T00:00:36.617Z,8.07
2018-01-01T00:01:10.501Z,7.05
2018-01-01T00:01:44.412Z,6.65
2018-01-01T00:02:18.281Z,6.07
2018-01-01T00:02:52.149Z,4.90
2018-01-01T00:03:26.041Z,5.22
2018-01-01T00:03:59.900Z,7.78
2018-01-01T00:04:33.891Z,7.07
2018-01-01T00:05:07.988Z,8.48
2018-01-01T00:05:41.873Z,8.77
2018-01-01T00:06:15.888Z,8.18
2018-01-01T00:06:49.782Z,8.45
2018-01-01T00:07:23.678Z,7.43
2018-01-01T00:07:57.525Z,6.47
2018-01-01T00:08:31.384Z,5.18
2018-01-01T00:09:05.263Z,6.50
2018-01-01T00:09:39.113Z,6.18
2018-01-01T00:10:12.979Z,7.50
2018-01-01T00:10:46.914Z,6.32
2018-01-01T00:11:20.775Z,6.15
2018-01-01T00:11:54.738Z,5.15
2018-01-01T00:12:28.592Z,5.28
2018-01-01T00:13:02.477Z,4.28
2018-01-01T00:13:36.345Z,5.45
2018-01-01T00:14:10.200Z,5.60
2018-01-01T00:14:44.071Z,5.30
2018-01-01T00:15:17.927Z,5.43
2018-01-01T00:15:51.813Z,5.93
2018-01-01T00:16:25.701Z,10.02
2018-01-01T00:16:59.560Z,7.93
2018-01-01T00:17:33.425Z,6.25
2018-01-01T00:18:07.280Z,10.13
2018-01-01T00:18:41.689Z,7.43
2018-01-01T00:19:15.571Z,6.57
2018-01-01T00:19:49.427Z,6.28
2018-01-01T00:20:23.284Z,7.70
2018-01-01T00:20:57.159Z,7.90
2018-01-01T00:21:31.098Z,7.57
2018-01-01T00:22:04.959Z,8.57
2018-01-01T00:22:38.824Z,6.85
2018-01-01T00:23:12.677Z,6.93
2018-01-01T00:23:46.532Z,5.30
2018-01-01T00:24:20.387Z,6.18
2018-01-01T00:24:54.232Z,4.97
2018-01-01T00:25:28.171Z,4.40
2018-01-01T00:26:02.062Z,5.15
2018-01-01T00:26:35.929Z,6.78
2018-01-01T00:27:09.863Z,4.82
2018-01-01T00:27:43.720Z,5.05
2018-01-01T00:28:17.574Z,4.72
2018-01-01T00:28:51.698Z,4.60
2018-01-01T00:29:25.609Z,3.87
2018-01-01T00:29:59.540Z,4.72
2018-01-01T00:30:33.389Z,4.00
2018-01-01T00:31:07.266Z,4.20
2018-01-01T00:31:41.111Z,4.40
2018-01-01T00:32:15.020Z,4.60
2018-01-01T00:32:48.922Z,4.60
2018-01-01T00:33:22.793Z,3.95
2018-01-01T00:33:56.653Z,4.50
2018-01-01T00:34:30.496Z,4.68
2018-01-01T00:35:04.377Z,5.03
2018-01-01T00:35:38.238Z,6.78
2018-01-01T00:36:12.151Z,25.48
2018-01-01T00:36:46.092Z,28.87
2018-01-01T00:37:19.959Z,45.33
2018-01-01T00:37:53.952Z,30.52
2018-01-01T00:38:27.819Z,26.85
2018-01-01T00:39:01.678Z,25.15
2018-01-01T00:39:35.536Z,12.02
2018-01-01T00:40:09.427Z,8.35
2018-01-01T00:40:43.401Z,8.70
2018-01-01T00:41:17.268Z,17.87
2018-01-01T00:41:51.132Z,17.75
2018-01-01T00:42:24.987Z,16.58
2018-01-01T00:42:58.849Z,22.00
2018-01-01T00:43:32.721Z,28.65
2018-01-01T00:44:06.588Z,36.20
2018-01-01T00:44:40.484Z,24.00
2018-01-01T00:45:14.360Z,38.08
2018-01-01T00:45:48.226Z,14.50
2018-01-01T00:46:22.108Z,14.60
2018-01-01T00:46:56.051Z,7.10
2018-01-01T00:47:29.906Z,4.85
2018-01-01T00:48:03.745Z,4.50
2018-01-01T00:48:37.642Z,5.45
2018-01-01T00:49:11.501Z,4.25
2018-01-01T00:49:45.359Z,5.20
2018-01-01T00:50:19.205Z,4.85
2018-01-01T00:50:53.084Z,4.68
2018-01-01T00:51:26.975Z,4.50
2018-01-01T00:52:00.872Z,4.62
2018-01-01T00:52:34.745Z,4.45
2018-01-01T00:53:08.601Z,4.18
2018-01-01T00:53:42.469Z,5.65
2018-01-01T00:54:16.334Z,4.93
2018-01-01T00:54:50.194Z,5.32
2018-01-01T00:55:24.064Z,4.82
2018-01-01T00:55:57.933Z,5.00
2018-01-01T00:56:31.803Z,5.62
2018-01-01T00:57:05.651Z,5.28
2018-01-01T00:57:39.568Z,5.15
2018-01-01T00:58:13.735Z,5.25
2018-01-01T00:58:47.583Z,4.72
2018-01-01T00:59:21.477Z,5.32
2018-01-01T00:59:55.325Z,5.82
2018-01-01T01:00:29.201Z,6.57
2018-01-01T01:01:03.064Z,6.22
2018-01-01T01:01:36.936Z,6.00
2018-01-01T01:02:10.801Z,5.60
2018-01-01T01:02:44.698Z,4.55
2018-01-01T01:03:18.617Z,5.30
2018-01-01T01:03:52.491Z,5.85
2018-01-01T01:04:26.365Z,5.57
2018-01-01T01:05:00.224Z,4.95
2018-01-01T01:05:34.075Z,6.07
2018-01-01T01:06:07.926Z,5.62
2018-01-01T01:06:41.801Z,5.22
2018-01-01T01:07:15.654Z,5.78
2018-01-01T01:07:49.512Z,4.93
2018-01-01T01:08:23.544Z,5.00
2018-01-01T01:08:57.459Z,5.78
2018-01-01T01:09:31.333Z,5.25
2018-01-01T01:10:05.229Z,5.10
2018-01-01T01:10:39.097Z,5.85
2018-01-01T01:11:12.981Z,5.50
2018-01-01T01:11:46.866Z,6.70
2018-01-01T01:12:20.717Z,6.00
2018-01-01T01:12:54.564Z,6.45
2018-01-01T01:13:28.471Z,5.70
2018-01-01T01:14:02.325Z,5.90
2018-01-01T01:14:36.180Z,6.35
2018-01-01T01:15:10.256Z,5.55
2018-01-01T01:15:44.113Z,5.82
2018-01-01T01:16:17.982Z,7.65
2018-01-01T01:16:51.868Z,7.00
2018-01-01T01:17:25.756Z,6.97
2018-01-01T01:17:59.690Z,6.30
2018-01-01T01:18:33.589Z,6.15
2018-01-01T01:19:07.438Z,6.25
2018-01-01T01:19:41.299Z,6.62
2018-01-01T01:20:15.150Z,6.35
2018-01-01T01:20:49.085Z,6.50
2018-01-01T01:21:22.935Z,7.05
2018-01-01T01:21:56.809Z,6.70
2018-01-01T01:22:30.709Z,6.85
2018-01-01T01:23:04.617Z,6.93
2018-01-01T01:23:38.544Z,6.37
2018-01-01T01:24:12.401Z,6.55
2018-01-01T01:24:46.261Z,6.62
2018-01-01T01:25:20.128Z,6.95
2018-01-01T01:25:54.021Z,6.65
2018-01-01T01:26:27.988Z,5.93
2018-01-01T01:27:01.857Z,6.47
2018-01-01T01:27:35.881Z,6.40
2018-01-01T01:28:09.776Z,6.68
2018-01-01T01:28:43.655Z,7.32
2018-01-01T01:29:17.517Z,6.62
2018-01-01T01:29:51.380Z,6.85
2018-01-01T01:30:25.249Z,6.47
2018-01-01T01:30:59.127Z,7.37
2018-01-01T01:31:32.988Z,6.43
2018-01-01T01:32:06.852Z,6.32
2018-01-01T01:32:40.744Z,6.80
2018-01-01T01:33:14.601Z,6.60
2018-01-01T01:33:48.478Z,6.43
2018-01-01T01:34:22.345Z,6.85
2018-01-01T01:34:56.201Z,6.62
2018-01-01T01:35:30.080Z,5.95
2018-01-01T01:36:04.017Z,6.45
2018-01-01T01:36:37.876Z,6.65
2018-01-01T01:37:11.757Z,6.35
2018-01-01T01:37:45.620Z,6.75
2018-01-01T01:38:19.464Z,6.30
2018-01-01T01:38:53.324Z,6.93
2018-01-01T01:39:27.177Z,6.55
2018-01-01T01:40:01.074Z,7.40
2018-01-01T01:40:34.963Z,6.40
2018-01-01T01:41:08.867Z,7.78
2018-01-01T01:41:42.746Z,6.62
2018-01-01T01:42:16.646Z,5.75
2018-01-01T01:42:50.573Z,6.45
2018-01-01T01:43:24.462Z,6.87
2018-01-01T01:43:58.370Z,5.95
2018-01-01T01:44:32.228Z,6.70
2018-01-01T01:45:06.083Z,5.80
2018-01-01T01:45:39.938Z,6.87
2018-01-01T01:46:13.836Z,6.60
2018-01-01T01:46:47.711Z,6.75
2018-01-01T01:47:21.623Z,6.55
2018-01-01T01:47:55.488Z,6.75
2018-01-01T01:48:35.199Z,6.70
2018-01-01T01:49:09.081Z,6.75
2018-01-01T01:49:42.929Z,6.22
2018-01-01T01:50:16.836Z,6.87
2018-01-01T01:50:50.681Z,7.25
2018-01-01T01:51:24.564Z,7.05
2018-01-01T01:51:58.501Z,7.40
2018-01-01T01:52:32.384Z,7.40
2018-01-01T01:53:06.293Z,7.22
2018-01-01T01:53:40.186Z,6.95
2018-01-01T01:54:14.041Z,6.97
2018-01-01T01:54:47.902Z,7.72
2018-01-01T01:55:21.763Z,6.50
2018-01-01T01:55:55.628Z,7.22
2018-01-01T01:56:29.485Z,6.90
2018-01-01T01:57:03.555Z,7.10
2018-01-01T01:57:37.430Z,7.15
2018-01-01T01:58:11.287Z,7.55
2018-01-01T01:58:45.175Z,6.82
2018-01-01T01:59:19.034Z,7.55
2018-01-01T01:59:52.908Z,7.40
2018-01-01T02:00:26.762Z,7.78
2018-01-01T02:01:00.669Z,7.57
2018-01-01T02:01:34.724Z,7.47
2018-01-01T02:02:08.614Z,7.25
2018-01-01T02:02:42.496Z,7.25
2018-01-01T02:03:16.352Z,7.65
2018-01-01T02:03:50.197Z,7.05
2018-01-01T02:04:24.049Z,6.95
2018-01-01T02:04:57.899Z,7.37
2018-01-01T02:05:31.986Z,8.15
2018-01-01T02:06:05.893Z,7.72
2018-01-01T02:06:39.748Z,8.35
2018-01-01T02:07:13.605Z,7.78
2018-01-01T02:07:47.502Z,7.05
2018-01-01T02:08:21.356Z,7.37
2018-01-01T02:08:55.216Z,6.45
2018-01-01T02:09:29.074Z,7.95
2018-01-01T02:10:02.942Z,7.15
2018-01-01T02:10:36.801Z,7.22
2018-01-01T02:11:10.723Z,8.65
2018-01-01T02:11:44.573Z,7.10
2018-01-01T02:12:18.445Z,8.02
2018-01-01T02:12:52.325Z,8.35
2018-01-01T02:13:26.172Z,8.10
2018-01-01T02:14:00.049Z,7.37
2018-01-01T02:14:33.916Z,7.97
2018-01-01T02:15:07.797Z,7.43
2018-01-01T02:15:41.647Z,6.50
2018-01-01T02:16:15.532Z,6.68
2018-01-01T02:16:49.397Z,7.62
2018-01-01T02:17:23.272Z,7.07
2018-01-01T02:17:57.166Z,6.30
2018-01-01T02:18:31.036Z,6.50
2018-01-01T02:19:04.893Z,6.72
2018-01-01T02:19:38.752Z,6.65
2018-01-01T02:20:12.617Z,6.32
2018-01-01T02:20:46.471Z,5.87
2018-01-01T02:21:20.328Z,6.03
2018-01-01T02:21:54.188Z,5.78
2018-01-01T02:22:28.077Z,6.65
2018-01-01T02:23:01.953Z,6.65
2018-01-01T02:23:35.825Z,5.93
2018-01-01T02:24:09.746Z,5.90
2018-01-01T02:24:43.613Z,6.65
2018-01-01T02:25:17.464Z,6.65
2018-01-01T02:25:51.315Z,6.30
2018-01-01T02:26:25.190Z,5.97
2018-01-01T02:26:59.051Z,6.22
2018-01-01T02:27:32.977Z,7.37
2018-01-01T02:28:06.850Z,7.50
2018-01-01T02:28:40.695Z,6.80
2018-01-01T02:29:14.551Z,6.57
2018-01-01T02:29:48.407Z,5.72
2018-01-01T02:30:22.278Z,6.80
2018-01-01T02:30:56.150Z,5.37
2018-01-01T02:31:30.035Z,5.25
2018-01-01T02:32:09.821Z,5.65
2018-01-01T02:32:43.681Z,4.70
2018-01-01T02:33:17.570Z,4.85
2018-01-01T02:33:51.426Z,5.53
2018-01-01T02:34:25.397Z,5.00
2018-01-01T02:34:59.245Z,4.95
2018-01-01T02:35:33.117Z,5.40
2018-01-01T02:36:06.995Z,4.72
2018-01-01T02:36:40.857Z,4.80
2018-01-01T02:37:14.713Z,5.05
2018-01-01T02:37:48.560Z,4.68
2018-01-01T02:38:22.451Z,4.68
2018-01-01T02:38:56.520Z,4.15
2018-01-01T02:39:30.619Z,4.22
2018-01-01T02:40:04.475Z,4.50
2018-01-01T02:40:38.346Z,4.90
2018-01-01T02:41:12.188Z,4.12
2018-01-01T02:41:46.058Z,4.28
2018-01-01T02:42:19.934Z,11.50
2018-01-01T02:42:53.789Z,5.30
2018-01-01T02:43:27.644Z,4.53
2018-01-01T02:44:01.532Z,4.15
2018-01-01T02:44:35.454Z,4.53
2018-01-01T02:45:09.629Z,4.03
2018-01-01T02:45:43.473Z,4.37
2018-01-01T02:46:17.335Z,4.22
2018-01-01T02:46:51.464Z,4.47
2018-01-01T02:47:25.312Z,3.70
2018-01-01T02:47:59.196Z,3.60
2018-01-01T02:48:33.071Z,3.50
2018-01-01T02:49:06.922Z,3.70
2018-01-01T02:49:40.777Z,4.47
2018-01-01T02:50:14.731Z,3.80
2018-01-01T02:50:48.590Z,4.22
2018-01-01T02:51:22.440Z,4.10
2018-01-01T02:51:56.314Z,3.65
2018-01-01T02:52:30.172Z,3.65
2018-01-01T02:53:04.085Z,4.20
2018-01-01T02:53:38.052Z,3.75
2018-01-01T02:54:12.002Z,3.80
2018-01-01T02:54:45.866Z,3.60
2018-01-01T02:55:19.737Z,3.03
2018-01-01T02:55:53.617Z,3.12
2018-01-01T02:56:27.471Z,3.00
2018-01-01T02:57:01.352Z,3.12
2018-01-01T02:57:35.246Z,3.33
2018-01-01T02:58:09.091Z,3.70
2018-01-01T02:58:42.970Z,3.40
2018-01-01T02:59:16.832Z,3.55
2018-01-01T02:59:50.698Z,2.47
2018-01-01T03:00:24.587Z,2.83
2018-01-01T03:00:58.460Z,2.97
2018-01-01T03:01:32.315Z,2.35
2018-01-01T03:02:06.177Z,3.00
2018-01-01T03:02:40.035Z,2.53
2018-01-01T03:03:13.902Z,2.40
2018-01-01T03:03:47.807Z,2.40
2018-01-01T03:04:21.664Z,2.97
2018-01-01T03:04:56.948Z,2.90
2018-01-01T03:05:30.804Z,2.42
2018-01-01T03:06:04.681Z,2.78
2018-01-01T03:06:38.545Z,2.72
2018-01-01T03:07:12.387Z,2.78
2018-01-01T03:07:46.239Z,3.00
2018-01-01T03:08:20.092Z,2.92
2018-01-01T03:08:53.944Z,2.72
2018-01-01T03:09:27.814Z,2.72
2018-01-01T03:10:01.685Z,3.12
2018-01-01T03:10:35.550Z,2.70
2018-01-01T03:11:09.421Z,2.37
2018-01-01T03:11:43.290Z,3.03
2018-01-01T03:12:17.149Z,2.45
2018-01-01T03:12:51.004Z,2.40
2018-01-01T03:13:24.958Z,2.35
2018-01-01T03:13:58.878Z,2.50
2018-01-01T03:14:32.789Z,2.87
2018-01-01T03:15:06.860Z,2.30
2018-01-01T03:15:40.727Z,2.85
2018-01-01T03:16:14.580Z,2.35
2018-01-01T03:16:48.469Z,2.67
2018-01-01T03:17:22.324Z,2.50
2018-01-01T03:17:56.195Z,2.22
2018-01-01T03:18:30.045Z,2.28
2018-01-01T03:19:03.905Z,2.22
2018-01-01T03:19:37.758Z,2.45
2018-01-01T03:20:11.617Z,2.15
2018-01-01T03:20:45.473Z,2.30
2018-01-01T03:21:19.325Z,2.30
2018-01-01T03:21:53.188Z,2.40
2018-01-01T03:22:27.032Z,2.12
2018-01-01T03:23:00.902Z,2.20
2018-01-01T03:23:34.758Z,2.30
2018-01-01T03:24:08.660Z,2.53
2018-01-01T03:24:42.573Z,2.45
2018-01-01T03:25:16.441Z,2.58
2018-01-01T03:25:50.336Z,2.17
2018-01-01T03:26:24.212Z,2.22
2018-01-01T03:26:58.073Z,2.60
2018-01-01T03:27:31.975Z,2.37
2018-01-01T03:28:05.836Z,2.45
2018-01-01T03:28:39.708Z,2.12
2018-01-01T03:29:13.600Z,2.35
2018-01-01T03:29:47.454Z,2.00
2018-01-01T03:30:21.379Z,2.50
2018-01-01T03:30:55.246Z,2.10
2018-01-01T03:31:29.097Z,2.42
2018-01-01T03:32:02.971Z,2.10
2018-01-01T03:32:36.840Z,2.40
2018-01-01T03:33:10.695Z,2.55
2018-01-01T03:33:44.566Z,2.70
2018-01-01T03:34:18.431Z,2.50
2018-01-01T03:34:52.286Z,2.75
2018-01-01T03:35:26.139Z,3.05
2018-01-01T03:36:00.026Z,13.55
2018-01-01T03:36:33.880Z,6.57
2018-01-01T03:37:07.770Z,2.87
2018-01-01T03:37:41.649Z,3.30
2018-01-01T03:38:15.504Z,5.65
2018-01-01T03:38:49.354Z,3.87
2018-01-01T03:39:23.228Z,2.80
2018-01-01T03:39:57.085Z,2.42
2018-01-01T03:40:30.938Z,2.25
2018-01-01T03:41:05.105Z,2.20
2018-01-01T03:41:38.974Z,2.53
2018-01-01T03:42:12.849Z,2.42
2018-01-01T03:42:46.713Z,2.03
2018-01-01T03:43:20.570Z,2.22
2018-01-01T03:43:54.433Z,2.50
2018-01-01T03:44:28.325Z,2.40
2018-01-01T03:45:02.198Z,2.30
2018-01-01T03:45:36.081Z,2.53
2018-01-01T03:46:09.929Z,2.00
2018-01-01T03:46:43.798Z,2.08
2018-01-01T03:47:17.723Z,2.30
2018-01-01T03:47:51.584Z,2.08
2018-01-01T03:48:25.441Z,3.10
2018-01-01T03:48:59.304Z,2.12
2018-01-01T03:49:33.201Z,2.20
2018-01-01T03:50:07.060Z,2.10
2018-01-01T03:50:40.919Z,2.10
2018-01-01T03:51:14.787Z,1.90
2018-01-01T03:51:48.643Z,2.10
2018-01-01T03:52:22.497Z,2.08
2018-01-01T03:52:56.385Z,2.17
2018-01-01T03:53:30.226Z,1.92
2018-01-01T03:54:04.080Z,2.12
2018-01-01T03:54:38.003Z,2.05
2018-01-01T03:55:12.693Z,2.08
2018-01-01T03:55:46.582Z,2.35
2018-01-01T03:56:20.449Z,1.90
2018-01-01T03:56:54.410Z,1.92
2018-01-01T03:57:28.273Z,2.12
2018-01-01T03:58:02.166Z,2.42
2018-01-01T03:58:36.062Z,2.03
2018-01-01T03:59:09.940Z,2.12
2018-01-01T03:59:43.816Z,1.80
2018-01-01T04:00:17.681Z,2.08
2018-01-01T04:00:51.581Z,1.95
2018-01-01T04:01:25.455Z,2.58
2018-01-01T04:01:59.330Z,1.73
2018-01-01T04:02:33.263Z,1.98
2018-01-01T04:03:07.130Z,2.20
2018-01-01T04:03:41.033Z,1.95
2018-01-01T04:04:14.909Z,2.00
2018-01-01T04:04:48.781Z,1.77
2018-01-01T04:05:22.628Z,2.58
2018-01-01T04:05:56.487Z,1.92
2018-01-01T04:06:30.396Z,1.67
2018-01-01T04:07:04.289Z,2.50
2018-01-01T04:07:38.168Z,2.35
2018-01-01T04:08:12.021Z,2.28
2018-01-01T04:08:45.871Z,2.00
2018-01-01T04:09:19.732Z,2.75
2018-01-01T04:09:53.613Z,2.50
2018-01-01T04:10:27.455Z,2.30
2018-01-01T04:11:01.336Z,2.12
2018-01-01T04:11:35.194Z,2.12
2018-01-01T04:12:09.038Z,2.15
2018-01-01T04:12:43.063Z,2.10
2018-01-01T04:13:16.914Z,2.00
2018-01-01T04:13:50.769Z,2.12
2018-01-01T04:14:24.633Z,2.78
2018-01-01T04:14:58.526Z,2.95
2018-01-01T04:15:32.422Z,2.62
2018-01-01T04:16:06.280Z,2.15
2018-01-01T04:16:40.127Z,2.30
2018-01-01T04:17:14.005Z,1.98
2018-01-01T04:17:47.861Z,2.25
2018-01-01T04:18:21.894Z,2.00
2018-01-01T04:18:55.749Z,2.28
2018-01-01T04:19:29.592Z,2.55
2018-01-01T04:20:03.459Z,2.70
2018-01-01T04:20:37.318Z,2.85
2018-01-01T04:21:11.233Z,2.90
2018-01-01T04:21:45.096Z,3.47
2018-01-01T04:22:18.947Z,2.70
2018-01-01T04:22:52.854Z,2.30
2018-01-01T04:23:26.701Z,2.75
2018-01-01T04:24:00.570Z,2.95
2018-01-01T04:24:34.577Z,2.60
2018-01-01T04:25:08.634Z,1.90
2018-01-01T04:25:42.486Z,2.12
2018-01-01T04:26:16.374Z,2.05
2018-01-01T04:26:50.319Z,1.90
2018-01-01T04:27:24.173Z,1.87
2018-01-01T04:27:58.028Z,2.30
2018-01-01T04:28:31.880Z,2.00
2018-01-01T04:29:05.736Z,1.75
2018-01-01T04:29:39.608Z,1.60
2018-01-01T04:30:13.456Z,1.98
2018-01-01T04:30:47.300Z,1.67
2018-01-01T04:31:21.149Z,2.00
2018-01-01T04:31:55.001Z,2.17
2018-01-01T04:32:28.860Z,1.87
2018-01-01T04:33:02.709Z,1.83
2018-01-01T04:33:36.604Z,2.20
2018-01-01T04:34:10.457Z,2.20
2018-01-01T04:34:44.338Z,2.00
2018-01-01T04:35:18.199Z,2.30
2018-01-01T04:35:52.081Z,2.05
2018-01-01T04:36:26.023Z,2.00
2018-01-01T04:36:59.888Z,2.22
2018-01-01T04:37:33.745Z,1.58
2018-01-01T04:38:07.628Z,1.90
2018-01-01T04:38:41.502Z,2.47
2018-01-01T04:39:15.373Z,2.00
2018-01-01T04:39:49.241Z,2.00
2018-01-01T04:40:23.133Z,1.60
2018-01-01T04:40:57.004Z,2.00
2018-01-01T04:41:30.860Z,2.17
2018-01-01T04:42:04.765Z,2.20
2018-01-01T04:42:38.610Z,1.77
2018-01-01T04:43:12.489Z,2.30
2018-01-01T04:43:46.414Z,2.28
2018-01-01T04:44:20.273Z,2.42
2018-01-01T04:44:54.251Z,2.08
2018-01-01T04:45:28.168Z,1.80
2018-01-01T04:46:02.017Z,1.83
2018-01-01T04:46:35.892Z,2.12
2018-01-01T04:47:09.869Z,2.30
2018-01-01T04:47:43.762Z,2.25
2018-01-01T04:48:17.626Z,1.98
2018-01-01T04:48:51.516Z,2.05
2018-01-01T04:49:25.395Z,2.20
2018-01-01T04:49:59.265Z,2.45
2018-01-01T04:50:33.143Z,3.08
2018-01-01T04:51:07.038Z,3.10
2018-01-01T04:51:40.895Z,2.10
2018-01-01T04:52:14.764Z,2.03
2018-01-01T04:52:48.627Z,2.25
2018-01-01T04:53:22.548Z,1.83
2018-01-01T04:53:56.417Z,2.15
2018-01-01T04:54:30.288Z,2.10
2018-01-01T04:55:04.205Z,1.73
2018-01-01T04:55:38.086Z,2.03
2018-01-01T04:56:11.988Z,1.98
2018-01-01T04:56:45.834Z,2.08
2018-01-01T04:57:19.688Z,2.50
2018-01-01T04:57:53.554Z,1.92
2018-01-01T04:58:27.425Z,2.00
2018-01-01T04:59:01.265Z,1.70
2018-01-01T04:59:35.137Z,2.15
2018-01-01T05:00:08.996Z,2.00
2018-01-01T05:00:42.869Z,2.58
2018-01-01T05:01:16.765Z,1.90
2018-01-01T05:01:50.620Z,1.80
2018-01-01T05:02:24.492Z,2.05
2018-01-01T05:02:58.340Z,1.85
2018-01-01T05:03:32.193Z,1.80
2018-01-01T05:04:06.050Z,1.95
2018-01-01T05:04:39.897Z,2.00
2018-01-01T05:05:13.750Z,2.10
2018-01-01T05:05:47.611Z,1.98
2018-01-01T05:06:21.507Z,2.05
2018-01-01T05:06:55.355Z,2.42
2018-01-01T05:07:29.193Z,1.83
2018-01-01T05:08:03.047Z,2.42
2018-01-01T05:08:36.904Z,2.22
2018-01-01T05:09:10.772Z,2.17
2018-01-01T05:09:44.626Z,2.10
2018-01-01T05:10:18.493Z,2.08
2018-01-01T05:10:52.354Z,2.25
2018-01-01T05:11:26.205Z,2.30
2018-01-01T05:12:00.112Z,2.10
2018-01-01T05:12:34.011Z,2.37
2018-01-01T05:13:07.865Z,2.42
2018-01-01T05:13:41.737Z,2.37
2018-01-01T05:14:15.591Z,2.15
2018-01-01T05:14:49.471Z,2.00
2018-01-01T05:15:23.339Z,2.37
2018-01-01T05:15:57.201Z,2.78
2018-01-01T05:16:31.155Z,2.45
2018-01-01T05:17:05.021Z,2.62
2018-01-01T05:17:38.869Z,1.95
2018-01-01T05:18:12.740Z,2.33
2018-01-01T05:18:46.606Z,1.73
2018-01-01T05:19:20.460Z,2.00
2018-01-01T05:19:54.327Z,1.83
2018-01-01T05:20:28.182Z,2.03
2018-01-01T05:21:02.077Z,2.53
2018-01-01T05:21:35.928Z,3.00
2018-01-01T05:22:09.783Z,2.20
2018-01-01T05:22:43.636Z,2.03
2018-01-01T05:23:17.497Z,2.10
2018-01-01T05:23:51.360Z,2.75
2018-01-01T05:24:25.240Z,2.10
2018-01-01T05:24:59.110Z,2.70
2018-01-01T05:25:33.189Z,1.87
2018-01-01T05:26:07.058Z,2.65
2018-01-01T05:26:40.961Z,2.65
2018-01-01T05:27:14.824Z,2.33
2018-01-01T05:27:48.678Z,2.85
2018-01-01T05:28:22.545Z,1.92
2018-01-01T05:28:56.405Z,2.50
2018-01-01T05:29:30.260Z,2.55
2018-01-01T05:30:04.140Z,1.90
2018-01-01T05:30:38.032Z,2.00
2018-01-01T05:31:11.907Z,2.40
2018-01-01T05:31:45.761Z,2.03
2018-01-01T05:32:19.605Z,2.22
2018-01-01T05:32:53.444Z,2.10
2018-01-01T05:33:27.304Z,2.42
2018-01-01T05:34:01.161Z,2.17
2018-01-01T05:34:35.016Z,1.95
2018-01-01T05:35:08.855Z,2.55
2018-01-01T05:35:42.714Z,2.15
2018-01-01T05:36:16.586Z,1.90
2018-01-01T05:36:50.442Z,2.20
2018-01-01T05:37:24.297Z,2.30
2018-01-01T05:37:58.144Z,2.45
2018-01-01T05:38:32.013Z,2.17
2018-01-01T05:39:05.898Z,2.00
2018-01-01T05:39:39.745Z,2.30
2018-01-01T05:40:13.587Z,2.67
2018-01-01T05:40:47.437Z,2.97
2018-01-01T05:41:21.304Z,3.15
2018-01-01T05:41:55.160Z,2.10
2018-01-01T05:42:29.248Z,2.40
2018-01-01T05:43:03.097Z,2.90
2018-01-01T05:43:36.970Z,2.35
2018-01-01T05:44:10.829Z,2.05
2018-01-01T05:44:44.694Z,2.30
2018-01-01T05:45:18.556Z,2.50
2018-01-01T05:45:52.397Z,2.25
2018-01-01T05:46:26.280Z,2.45
2018-01-01T05:47:00.281Z,2.28
2018-01-01T05:47:34.145Z,2.30
2018-01-01T05:48:08.025Z,2.50
2018-01-01T05:48:41.882Z,2.50
2018-01-01T05:49:15.750Z,2.53
2018-01-01T05:49:49.612Z,2.00
2018-01-01T05:50:23.459Z,2.30
2018-01-01T05:50:57.314Z,2.30
2018-01-01T05:51:31.189Z,2.22
2018-01-01T05:52:05.044Z,2.10
2018-01-01T05:52:38.897Z,2.12
2018-01-01T05:53:12.766Z,2.78
2018-01-01T05:53:46.623Z,2.30
2018-01-01T05:54:20.472Z,2.45
2018-01-01T05:54:54.351Z,2.55
2018-01-01T05:55:28.189Z,2.12
2018-01-01T05:56:02.049Z,2.58
2018-01-01T05:56:35.929Z,2.80
2018-01-01T05:57:09.787Z,2.55
2018-01-01T05:57:43.645Z,2.87
2018-01-01T05:58:17.520Z,2.15
2018-01-01T05:58:51.391Z,2.03
2018-01-01T05:59:25.257Z,2.30
2018-01-01T05:59:59.109Z,2.33
2018-01-01T06:00:32.970Z,3.05
2018-01-01T06:01:06.834Z,1.92
2018-01-01T06:01:40.696Z,3.08
2018-01-01T06:02:14.569Z,3.08
2018-01-01T06:02:48.434Z,2.35
2018-01-01T06:03:22.283Z,2.22
2018-01-01T06:03:56.150Z,1.85
2018-01-01T06:04:30.013Z,2.50
2018-01-01T06:05:03.880Z,1.92
2018-01-01T06:05:37.735Z,2.05
2018-01-01T06:06:11.613Z,2.45
2018-01-01T06:06:45.531Z,2.20
2018-01-01T06:07:19.444Z,2.17
2018-01-01T06:07:53.291Z,2.10
2018-01-01T06:08:27.204Z,1.80
2018-01-01T06:09:01.065Z,1.73
2018-01-01T06:09:34.916Z,2.12
2018-01-01T06:10:08.769Z,2.47
2018-01-01T06:10:42.622Z,2.10
2018-01-01T06:11:16.477Z,1.60
2018-01-01T06:11:50.349Z,2.30
2018-01-01T06:12:24.228Z,2.40
2018-01-01T06:12:58.099Z,2.30
2018-01-01T06:13:31.963Z,2.10
2018-01-01T06:14:05.846Z,2.55
2018-01-01T06:14:39.704Z,2.30
2018-01-01T06:15:13.567Z,1.95
2018-01-01T06:15:47.443Z,1.83
2018-01-01T06:16:21.323Z,2.10
2018-01-01T06:16:55.234Z,1.80
2018-01-01T06:17:29.389Z,1.92
2018-01-01T06:18:03.248Z,2.05
2018-01-01T06:18:37.120Z,1.95
2018-01-01T06:19:10.998Z,2.47
2018-01-01T06:19:44.857Z,2.10
2018-01-01T06:20:18.704Z,1.80
2018-01-01T06:20:52.554Z,1.83
2018-01-01T06:21:26.420Z,1.83
2018-01-01T06:22:00.315Z,1.85
2018-01-01T06:22:34.449Z,1.75
2018-01-01T06:23:08.308Z,1.85
2018-01-01T06:23:42.175Z,1.87
2018-01-01T06:24:16.021Z,1.60
2018-01-01T06:24:49.864Z,1.85
2018-01-01T06:25:23.717Z,2.22
2018-01-01T06:25:57.794Z,2.00
2018-01-01T06:26:31.665Z,1.55
2018-01-01T06:27:05.523Z,2.20
2018-01-01T06:27:39.505Z,2.15
2018-01-01T06:28:13.357Z,2.03
2018-01-01T06:28:47.216Z,1.70
2018-01-01T06:29:21.055Z,2.30
2018-01-01T06:29:54.907Z,1.98
2018-01-01T06:30:28.743Z,2.17
2018-01-01T06:31:02.602Z,2.30
2018-01-01T06:31:36.477Z,2.45
2018-01-01T06:32:10.348Z,2.70
2018-01-01T06:32:44.203Z,2.53
2018-01-01T06:33:18.054Z,2.60
2018-01-01T06:33:51.910Z,2.37
2018-01-01T06:34:25.765Z,2.05
2018-01-01T06:34:59.632Z,2.10
2018-01-01T06:35:33.513Z,1.87
2018-01-01T06:36:07.385Z,2.15
2018-01-01T06:36:41.246Z,2.17
2018-01-01T06:37:15.115Z,2.03
2018-01-01T06:37:48.976Z,2.20
2018-01-01T06:38:22.931Z,2.45
2018-01-01T06:38:56.781Z,2.12
2018-01-01T06:39:30.641Z,2.12
2018-01-01T06:40:04.504Z,2.30
2018-01-01T06:40:38.375Z,2.05
2018-01-01T06:41:12.233Z,2.55
2018-01-01T06:41:46.132Z,1.67
2018-01-01T06:42:20.009Z,2.30
2018-01-01T06:42:53.885Z,2.05
2018-01-01T06:43:27.730Z,1.70
2018-01-01T06:44:01.584Z,2.12
2018-01-01T06:44:35.439Z,1.90
2018-01-01T06:45:09.298Z,2.30
2018-01-01T06:45:43.185Z,1.80
2018-01-01T06:46:17.038Z,2.00
2018-01-01T06:46:50.909Z,2.25
2018-01-01T06:47:24.809Z,2.12
2018-01-01T06:47:58.817Z,2.20
2018-01-01T06:48:32.682Z,2.35
2018-01-01T06:49:06.537Z,2.67
2018-01-01T06:49:40.465Z,2.10
2018-01-01T06:50:14.323Z,2.25
2018-01-01T06:50:48.259Z,1.75
2018-01-01T06:51:22.117Z,2.15
2018-01-01T06:51:55.960Z,2.20
2018-01-01T06:52:29.883Z,2.37
2018-01-01T06:53:03.752Z,1.90
2018-01-01T06:53:37.617Z,2.10
2018-01-01T06:54:11.458Z,2.60
2018-01-01T06:54:45.328Z,2.15
2018-01-01T06:55:19.180Z,1.90
2018-01-01T06:55:53.047Z,2.10
2018-01-01T06:56:26.933Z,1.90
2018-01-01T06:57:00.831Z,2.17
2018-01-01T06:57:34.723Z,1.80
2018-01-01T06:58:08.610Z,2.60
2018-01-01T06:58:42.501Z,2.20
2018-01-01T06:59:16.360Z,2.17
2018-01-01T06:59:50.221Z,1.70
2018-01-01T07:00:24.080Z,2.35
2018-01-01T07:00:57.963Z,2.25
2018-01-01T07:01:31.812Z,1.70
2018-01-01T07:02:05.661Z,2.08
2018-01-01T07:02:39.579Z,2.20
2018-01-01T07:03:13.456Z,1.80
2018-01-01T07:03:47.304Z,2.47
2018-01-01T07:04:21.180Z,1.75
2018-01-01T07:04:55.038Z,2.15
2018-01-01T07:05:28.906Z,2.62
2018-01-01T07:06:02.776Z,2.17
2018-01-01T07:06:36.633Z,2.22
2018-01-01T07:07:10.512Z,2.00
2018-01-01T07:07:44.407Z,2.00
2018-01-01T07:08:18.251Z,2.35
2018-01-01T07:08:52.100Z,2.40
2018-01-01T07:09:25.943Z,2.28
2018-01-01T07:09:59.796Z,2.20
2018-01-01T07:10:33.673Z,2.30
2018-01-01T07:11:07.568Z,2.08
2018-01-01T07:11:41.415Z,2.42
2018-01-01T07:12:15.601Z,2.12
2018-01-01T07:12:49.507Z,1.80
2018-01-01T07:13:23.385Z,2.08
2018-01-01T07:13:57.246Z,2.22
2018-01-01T07:14:31.101Z,2.22
2018-01-01T07:15:05.033Z,2.30
2018-01-01T07:15:38.920Z,2.55
2018-01-01T07:16:12.781Z,2.12
2018-01-01T07:16:46.630Z,2.10
2018-01-01T07:17:20.489Z,1.95
2018-01-01T07:17:54.392Z,2.10
2018-01-01T07:18:28.241Z,2.03
2018-01-01T07:19:02.112Z,2.05
2018-01-01T07:19:35.981Z,2.50
2018-01-01T07:20:09.880Z,2.20
2018-01-01T07:20:43.732Z,2.00
2018-01-01T07:21:17.600Z,1.95
2018-01-01T07:21:51.456Z,2.25
2018-01-01T07:22:25.315Z,1.95
2018-01-01T07:22:59.195Z,1.95
2018-01-01T07:23:33.038Z,1.92
2018-01-01T07:24:06.893Z,2.08
2018-01-01T07:24:40.879Z,2.30
2018-01-01T07:25:14.980Z,1.90
2018-01-01T07:25:48.845Z,2.55
2018-01-01T07:26:22.872Z,2.20
2018-01-01T07:26:56.733Z,2.40
2018-01-01T07:27:30.613Z,2.00
2018-01-01T07:28:04.559Z,2.10
2018-01-01T07:28:38.416Z,2.12
2018-01-01T07:29:12.275Z,1.80
2018-01-01T07:29:46.125Z,2.00
2018-01-01T07:30:19.981Z,2.15